sensor_id;sensor_type;location;lat;lon;timestamp;P1;durP1;ratioP1;P2;durP2;ratioP2
18320;SDS011;54904;54.350;18.664;2024-01-27T00:00:24;9.93;;;1.77;;
18320;SDS011;54904;54.350;18.664;2024-01-27T00:02:53;5.57;;;1.80;;
18320;SDS011;54904;54.350;18.664;2024-01-27T00:05:29;19.43;;;1.80;;
18320;SDS011;54904;54.350;18.664;2024-01-27T00:07:56;8.20;;;1.60;;
18320;SDS011;54904;54.350;18.664;2024-01-27T00:10:23;5.10;;;1.90;;
18320;SDS011;54904;54.350;18.664;2024-01-27T00:12:51;4.90;;;1.67;;
18320;SDS011;54904;54.350;18.664;2024-01-27T00:15:18;5.70;;;2.20;;
18320;SDS011;54904;54.350;18.664;2024-01-27T00:17:45;5.17;;;1.87;;
18320;SDS011;54904;54.350;18.664;2024-01-27T00:20:12;5.37;;;1.60;;
18320;SDS011;54904;54.350;18.664;2024-01-27T00:22:39;5.73;;;1.97;;
18320;SDS011;54904;54.350;18.664;2024-01-27T00:25:07;5.87;;;1.80;;
18320;SDS011;54904;54.350;18.664;2024-01-27T00:27:34;6.93;;;1.70;;
18320;SDS011;54904;54.350;18.664;2024-01-27T00:30:03;4.83;;;2.13;;
18320;SDS011;54904;54.350;18.664;2024-01-27T00:32:30;3.90;;;1.40;;
18320;SDS011;54904;54.350;18.664;2024-01-27T00:34:59;4.77;;;1.50;;
18320;SDS011;54904;54.350;18.664;2024-01-27T00:37:26;4.23;;;1.37;;
18320;SDS011;54904;54.350;18.664;2024-01-27T00:39:53;5.70;;;1.83;;
18320;SDS011;54904;54.350;18.664;2024-01-27T00:42:20;5.33;;;2.00;;
18320;SDS011;54904;54.350;18.664;2024-01-27T00:44:49;7.80;;;1.47;;
18320;SDS011;54904;54.350;18.664;2024-01-27T00:47:17;5.93;;;1.37;;
18320;SDS011;54904;54.350;18.664;2024-01-27T00:49:44;6.63;;;1.40;;
18320;SDS011;54904;54.350;18.664;2024-01-27T00:52:11;3.10;;;1.00;;
18320;SDS011;54904;54.350;18.664;2024-01-27T00:54:38;4.67;;;1.40;;
18320;SDS011;54904;54.350;18.664;2024-01-27T00:57:05;4.33;;;1.40;;
18320;SDS011;54904;54.350;18.664;2024-01-27T00:59:32;6.27;;;1.47;;
18320;SDS011;54904;54.350;18.664;2024-01-27T01:01:59;3.43;;;1.17;;
18320;SDS011;54904;54.350;18.664;2024-01-27T01:04:28;3.77;;;1.00;;
18320;SDS011;54904;54.350;18.664;2024-01-27T01:06:55;2.17;;;1.00;;
18320;SDS011;54904;54.350;18.664;2024-01-27T01:09:22;2.03;;;1.30;;
18320;SDS011;54904;54.350;18.664;2024-01-27T01:11:49;3.20;;;1.03;;
18320;SDS011;54904;54.350;18.664;2024-01-27T01:14:16;6.13;;;1.63;;
18320;SDS011;54904;54.350;18.664;2024-01-27T01:16:42;3.63;;;1.20;;
18320;SDS011;54904;54.350;18.664;2024-01-27T01:19:09;5.20;;;1.30;;
18320;SDS011;54904;54.350;18.664;2024-01-27T01:21:38;6.10;;;1.40;;
18320;SDS011;54904;54.350;18.664;2024-01-27T01:24:05;2.00;;;1.30;;
18320;SDS011;54904;54.350;18.664;2024-01-27T01:26:36;2.53;;;1.00;;
18320;SDS011;54904;54.350;18.664;2024-01-27T01:29:36;2.73;;;0.93;;
18320;SDS011;54904;54.350;18.664;2024-01-27T01:32:04;3.60;;;1.00;;
18320;SDS011;54904;54.350;18.664;2024-01-27T01:34:31;3.63;;;0.90;;
18320;SDS011;54904;54.350;18.664;2024-01-27T01:37:00;3.93;;;1.20;;
18320;SDS011;54904;54.350;18.664;2024-01-27T01:39:28;2.40;;;1.10;;
18320;SDS011;54904;54.350;18.664;2024-01-27T01:41:55;1.90;;;1.00;;
18320;SDS011;54904;54.350;18.664;2024-01-27T01:44:22;5.40;;;1.47;;
18320;SDS011;54904;54.350;18.664;2024-01-27T01:46:50;2.27;;;1.13;;
18320;SDS011;54904;54.350;18.664;2024-01-27T01:49:17;2.37;;;1.07;;
18320;SDS011;54904;54.350;18.664;2024-01-27T01:51:44;1.33;;;0.90;;
18320;SDS011;54904;54.350;18.664;2024-01-27T01:54:12;2.33;;;0.90;;
18320;SDS011;54904;54.350;18.664;2024-01-27T01:56:39;3.40;;;1.20;;
18320;SDS011;54904;54.350;18.664;2024-01-27T01:59:08;3.07;;;1.30;;
18320;SDS011;54904;54.350;18.664;2024-01-27T02:01:35;1.17;;;0.80;;
18320;SDS011;54904;54.350;18.664;2024-01-27T02:04:03;4.20;;;1.03;;
18320;SDS011;54904;54.350;18.664;2024-01-27T02:06:30;2.10;;;1.00;;
18320;SDS011;54904;54.350;18.664;2024-01-27T02:08:58;2.93;;;0.90;;
18320;SDS011;54904;54.350;18.664;2024-01-27T02:11:26;2.93;;;0.90;;
18320;SDS011;54904;54.350;18.664;2024-01-27T02:13:53;1.73;;;0.90;;
18320;SDS011;54904;54.350;18.664;2024-01-27T02:16:20;2.13;;;0.90;;
18320;SDS011;54904;54.350;18.664;2024-01-27T02:18:47;2.70;;;0.70;;
18320;SDS011;54904;54.350;18.664;2024-01-27T02:21:14;1.57;;;0.77;;
18320;SDS011;54904;54.350;18.664;2024-01-27T02:23:41;1.73;;;0.90;;
18320;SDS011;54904;54.350;18.664;2024-01-27T02:26:10;2.00;;;0.70;;
18320;SDS011;54904;54.350;18.664;2024-01-27T02:28:37;0.83;;;0.67;;
18320;SDS011;54904;54.350;18.664;2024-01-27T02:31:04;1.93;;;0.80;;
18320;SDS011;54904;54.350;18.664;2024-01-27T02:33:31;2.40;;;0.80;;
18320;SDS011;54904;54.350;18.664;2024-01-27T02:35:58;1.43;;;1.00;;
18320;SDS011;54904;54.350;18.664;2024-01-27T02:38:25;2.00;;;0.90;;
18320;SDS011;54904;54.350;18.664;2024-01-27T02:40:52;1.70;;;0.80;;
18320;SDS011;54904;54.350;18.664;2024-01-27T02:43:20;0.90;;;0.60;;
18320;SDS011;54904;54.350;18.664;2024-01-27T02:45:47;1.17;;;0.90;;
18320;SDS011;54904;54.350;18.664;2024-01-27T02:48:14;2.47;;;1.00;;
18320;SDS011;54904;54.350;18.664;2024-01-27T02:50:41;1.17;;;0.70;;
18320;SDS011;54904;54.350;18.664;2024-01-27T02:53:08;1.23;;;0.80;;
18320;SDS011;54904;54.350;18.664;2024-01-27T02:55:35;1.67;;;0.80;;
18320;SDS011;54904;54.350;18.664;2024-01-27T02:58:02;0.70;;;0.70;;
18320;SDS011;54904;54.350;18.664;2024-01-27T03:00:31;0.40;;;0.40;;
18320;SDS011;54904;54.350;18.664;2024-01-27T03:02:58;0.97;;;0.70;;
18320;SDS011;54904;54.350;18.664;2024-01-27T03:05:25;1.13;;;0.60;;
18320;SDS011;54904;54.350;18.664;2024-01-27T03:07:52;0.67;;;0.60;;
18320;SDS011;54904;54.350;18.664;2024-01-27T03:10:19;0.57;;;0.50;;
18320;SDS011;54904;54.350;18.664;2024-01-27T03:12:46;1.70;;;0.87;;
18320;SDS011;54904;54.350;18.664;2024-01-27T03:15:13;0.83;;;0.70;;
18320;SDS011;54904;54.350;18.664;2024-01-27T03:17:41;0.50;;;0.50;;
18320;SDS011;54904;54.350;18.664;2024-01-27T03:20:09;1.03;;;0.50;;
18320;SDS011;54904;54.350;18.664;2024-01-27T03:22:36;0.73;;;0.60;;
18320;SDS011;54904;54.350;18.664;2024-01-27T03:25:05;1.47;;;0.57;;
18320;SDS011;54904;54.350;18.664;2024-01-27T03:27:33;0.73;;;0.60;;
18320;SDS011;54904;54.350;18.664;2024-01-27T03:30:00;1.43;;;0.80;;
18320;SDS011;54904;54.350;18.664;2024-01-27T03:32:28;0.87;;;0.50;;
18320;SDS011;54904;54.350;18.664;2024-01-27T03:34:58;1.60;;;0.63;;
18320;SDS011;54904;54.350;18.664;2024-01-27T03:37:28;0.57;;;0.50;;
18320;SDS011;54904;54.350;18.664;2024-01-27T03:39:55;0.60;;;0.60;;
18320;SDS011;54904;54.350;18.664;2024-01-27T03:42:22;1.27;;;0.70;;
18320;SDS011;54904;54.350;18.664;2024-01-27T03:44:50;0.57;;;0.57;;
18320;SDS011;54904;54.350;18.664;2024-01-27T03:47:17;1.17;;;0.70;;
18320;SDS011;54904;54.350;18.664;2024-01-27T03:49:44;0.97;;;0.77;;
18320;SDS011;54904;54.350;18.664;2024-01-27T03:52:13;1.67;;;0.70;;
18320;SDS011;54904;54.350;18.664;2024-01-27T03:54:40;1.90;;;0.80;;
18320;SDS011;54904;54.350;18.664;2024-01-27T03:57:07;0.93;;;0.70;;
18320;SDS011;54904;54.350;18.664;2024-01-27T03:59:34;2.40;;;0.70;;
18320;SDS011;54904;54.350;18.664;2024-01-27T04:02:01;1.10;;;0.70;;
18320;SDS011;54904;54.350;18.664;2024-01-27T04:04:29;0.77;;;0.50;;
18320;SDS011;54904;54.350;18.664;2024-01-27T04:06:56;0.90;;;0.60;;
18320;SDS011;54904;54.350;18.664;2024-01-27T04:09:24;1.10;;;0.83;;
18320;SDS011;54904;54.350;18.664;2024-01-27T04:11:51;0.80;;;0.67;;
18320;SDS011;54904;54.350;18.664;2024-01-27T04:14:18;1.10;;;0.60;;
18320;SDS011;54904;54.350;18.664;2024-01-27T04:16:45;0.67;;;0.67;;
18320;SDS011;54904;54.350;18.664;2024-01-27T04:19:12;0.47;;;0.47;;
18320;SDS011;54904;54.350;18.664;2024-01-27T04:21:39;0.60;;;0.60;;
18320;SDS011;54904;54.350;18.664;2024-01-27T04:24:08;0.67;;;0.67;;
18320;SDS011;54904;54.350;18.664;2024-01-27T04:26:36;0.93;;;0.50;;
18320;SDS011;54904;54.350;18.664;2024-01-27T04:29:03;0.60;;;0.60;;
18320;SDS011;54904;54.350;18.664;2024-01-27T04:31:30;0.50;;;0.50;;
18320;SDS011;54904;54.350;18.664;2024-01-27T04:33:57;0.50;;;0.50;;
18320;SDS011;54904;54.350;18.664;2024-01-27T04:36:25;1.87;;;0.50;;
18320;SDS011;54904;54.350;18.664;2024-01-27T04:38:53;1.10;;;0.40;;
18320;SDS011;54904;54.350;18.664;2024-01-27T04:41:20;1.87;;;0.50;;
18320;SDS011;54904;54.350;18.664;2024-01-27T04:43:48;0.40;;;0.40;;
18320;SDS011;54904;54.350;18.664;2024-01-27T04:46:15;0.40;;;0.40;;
18320;SDS011;54904;54.350;18.664;2024-01-27T04:48:42;0.40;;;0.40;;
18320;SDS011;54904;54.350;18.664;2024-01-27T04:51:09;0.83;;;0.50;;
18320;SDS011;54904;54.350;18.664;2024-01-27T04:53:36;0.67;;;0.57;;
18320;SDS011;54904;54.350;18.664;2024-01-27T04:56:03;0.30;;;0.30;;
18320;SDS011;54904;54.350;18.664;2024-01-27T04:58:33;0.60;;;0.50;;
18320;SDS011;54904;54.350;18.664;2024-01-27T05:01:01;0.40;;;0.40;;
18320;SDS011;54904;54.350;18.664;2024-01-27T05:03:29;0.50;;;0.50;;
18320;SDS011;54904;54.350;18.664;2024-01-27T05:05:56;0.40;;;0.40;;
18320;SDS011;54904;54.350;18.664;2024-01-27T05:08:23;0.90;;;0.40;;
18320;SDS011;54904;54.350;18.664;2024-01-27T05:10:50;0.30;;;0.30;;
18320;SDS011;54904;54.350;18.664;2024-01-27T05:13:17;0.57;;;0.57;;
18320;SDS011;54904;54.350;18.664;2024-01-27T05:15:44;0.30;;;0.30;;
18320;SDS011;54904;54.350;18.664;2024-01-27T05:18:13;0.40;;;0.40;;
18320;SDS011;54904;54.350;18.664;2024-01-27T05:20:40;0.30;;;0.30;;
18320;SDS011;54904;54.350;18.664;2024-01-27T05:23:07;0.40;;;0.40;;
18320;SDS011;54904;54.350;18.664;2024-01-27T05:25:34;0.30;;;0.30;;
18320;SDS011;54904;54.350;18.664;2024-01-27T05:28:01;0.30;;;0.30;;
18320;SDS011;54904;54.350;18.664;2024-01-27T05:30:28;0.30;;;0.30;;
18320;SDS011;54904;54.350;18.664;2024-01-27T05:32:55;0.60;;;0.23;;
18320;SDS011;54904;54.350;18.664;2024-01-27T05:35:24;0.37;;;0.33;;
18320;SDS011;54904;54.350;18.664;2024-01-27T05:37:51;1.30;;;0.30;;
18320;SDS011;54904;54.350;18.664;2024-01-27T05:40:19;0.63;;;0.20;;
18320;SDS011;54904;54.350;18.664;2024-01-27T05:42:46;0.20;;;0.20;;
18320;SDS011;54904;54.350;18.664;2024-01-27T05:45:14;0.30;;;0.30;;
18320;SDS011;54904;54.350;18.664;2024-01-27T05:47:41;0.30;;;0.30;;
18320;SDS011;54904;54.350;18.664;2024-01-27T05:50:09;0.30;;;0.30;;
18320;SDS011;54904;54.350;18.664;2024-01-27T05:52:37;0.27;;;0.27;;
18320;SDS011;54904;54.350;18.664;2024-01-27T05:55:06;0.40;;;0.40;;
18320;SDS011;54904;54.350;18.664;2024-01-27T05:57:33;0.30;;;0.30;;
18320;SDS011;54904;54.350;18.664;2024-01-27T06:00:00;0.30;;;0.30;;
18320;SDS011;54904;54.350;18.664;2024-01-27T06:02:30;0.40;;;0.40;;
18320;SDS011;54904;54.350;18.664;2024-01-27T06:04:57;0.40;;;0.40;;
18320;SDS011;54904;54.350;18.664;2024-01-27T06:07:24;0.30;;;0.30;;
18320;SDS011;54904;54.350;18.664;2024-01-27T06:09:52;0.40;;;0.40;;
18320;SDS011;54904;54.350;18.664;2024-01-27T06:12:19;0.20;;;0.20;;
18320;SDS011;54904;54.350;18.664;2024-01-27T06:14:46;0.30;;;0.30;;
18320;SDS011;54904;54.350;18.664;2024-01-27T06:17:13;0.40;;;0.40;;
18320;SDS011;54904;54.350;18.664;2024-01-27T06:19:41;0.30;;;0.30;;
18320;SDS011;54904;54.350;18.664;2024-01-27T06:22:08;0.33;;;0.33;;
18320;SDS011;54904;54.350;18.664;2024-01-27T06:24:41;0.27;;;0.27;;
18320;SDS011;54904;54.350;18.664;2024-01-27T06:27:10;0.30;;;0.30;;
18320;SDS011;54904;54.350;18.664;2024-01-27T06:29:37;0.50;;;0.50;;
18320;SDS011;54904;54.350;18.664;2024-01-27T06:32:05;0.50;;;0.50;;
18320;SDS011;54904;54.350;18.664;2024-01-27T06:34:32;0.60;;;0.60;;
18320;SDS011;54904;54.350;18.664;2024-01-27T06:36:59;0.70;;;0.70;;
18320;SDS011;54904;54.350;18.664;2024-01-27T06:39:26;1.17;;;0.77;;
18320;SDS011;54904;54.350;18.664;2024-01-27T06:41:54;0.93;;;0.40;;
18320;SDS011;54904;54.350;18.664;2024-01-27T06:44:22;0.53;;;0.53;;
18320;SDS011;54904;54.350;18.664;2024-01-27T06:46:50;0.83;;;0.33;;
18320;SDS011;54904;54.350;18.664;2024-01-27T06:49:17;1.33;;;0.60;;
18320;SDS011;54904;54.350;18.664;2024-01-27T06:51:45;0.63;;;0.63;;
18320;SDS011;54904;54.350;18.664;2024-01-27T06:54:12;2.40;;;0.80;;
18320;SDS011;54904;54.350;18.664;2024-01-27T06:56:39;1.33;;;0.80;;
18320;SDS011;54904;54.350;18.664;2024-01-27T06:59:06;1.13;;;0.70;;
18320;SDS011;54904;54.350;18.664;2024-01-27T07:01:34;0.50;;;0.50;;
18320;SDS011;54904;54.350;18.664;2024-01-27T07:04:01;0.50;;;0.50;;
18320;SDS011;54904;54.350;18.664;2024-01-27T07:06:28;1.00;;;0.80;;
18320;SDS011;54904;54.350;18.664;2024-01-27T07:08:55;0.93;;;0.60;;
18320;SDS011;54904;54.350;18.664;2024-01-27T07:11:22;0.50;;;0.50;;
18320;SDS011;54904;54.350;18.664;2024-01-27T07:13:49;0.60;;;0.60;;
18320;SDS011;54904;54.350;18.664;2024-01-27T07:16:16;0.60;;;0.50;;
18320;SDS011;54904;54.350;18.664;2024-01-27T07:18:45;0.40;;;0.40;;
18320;SDS011;54904;54.350;18.664;2024-01-27T07:21:14;2.20;;;0.67;;
18320;SDS011;54904;54.350;18.664;2024-01-27T07:23:42;0.53;;;0.53;;
18320;SDS011;54904;54.350;18.664;2024-01-27T07:26:09;1.33;;;0.43;;
18320;SDS011;54904;54.350;18.664;2024-01-27T07:28:36;0.50;;;0.50;;
18320;SDS011;54904;54.350;18.664;2024-01-27T07:31:04;0.50;;;0.47;;
18320;SDS011;54904;54.350;18.664;2024-01-27T07:33:31;0.57;;;0.57;;
18320;SDS011;54904;54.350;18.664;2024-01-27T07:36:00;0.70;;;0.70;;
18320;SDS011;54904;54.350;18.664;2024-01-27T07:38:27;0.40;;;0.40;;
18320;SDS011;54904;54.350;18.664;2024-01-27T07:40:54;0.40;;;0.40;;
18320;SDS011;54904;54.350;18.664;2024-01-27T07:43:21;0.33;;;0.33;;
18320;SDS011;54904;54.350;18.664;2024-01-27T07:45:48;0.40;;;0.40;;
18320;SDS011;54904;54.350;18.664;2024-01-27T07:48:17;0.40;;;0.40;;
18320;SDS011;54904;54.350;18.664;2024-01-27T07:50:44;0.40;;;0.40;;
18320;SDS011;54904;54.350;18.664;2024-01-27T07:53:15;0.37;;;0.37;;
18320;SDS011;54904;54.350;18.664;2024-01-27T07:55:42;0.30;;;0.30;;
18320;SDS011;54904;54.350;18.664;2024-01-27T07:58:10;0.73;;;0.47;;
18320;SDS011;54904;54.350;18.664;2024-01-27T08:03:13;0.50;;;0.47;;
18320;SDS011;54904;54.350;18.664;2024-01-27T08:05:40;1.77;;;0.50;;
18320;SDS011;54904;54.350;18.664;2024-01-27T08:08:07;0.63;;;0.60;;
18320;SDS011;54904;54.350;18.664;2024-01-27T08:10:35;0.83;;;0.73;;
18320;SDS011;54904;54.350;18.664;2024-01-27T08:13:03;0.50;;;0.50;;
18320;SDS011;54904;54.350;18.664;2024-01-27T08:15:30;0.50;;;0.50;;
18320;SDS011;54904;54.350;18.664;2024-01-27T08:17:57;0.80;;;0.80;;
18320;SDS011;54904;54.350;18.664;2024-01-27T08:20:24;0.87;;;0.83;;
18320;SDS011;54904;54.350;18.664;2024-01-27T08:22:51;0.53;;;0.53;;
18320;SDS011;54904;54.350;18.664;2024-01-27T08:25:18;0.83;;;0.70;;
18320;SDS011;54904;54.350;18.664;2024-01-27T08:27:47;0.57;;;0.57;;
18320;SDS011;54904;54.350;18.664;2024-01-27T08:30:14;0.60;;;0.60;;
18320;SDS011;54904;54.350;18.664;2024-01-27T08:32:41;0.70;;;0.70;;
18320;SDS011;54904;54.350;18.664;2024-01-27T08:35:08;1.77;;;0.60;;
18320;SDS011;54904;54.350;18.664;2024-01-27T08:37:35;0.87;;;0.60;;
18320;SDS011;54904;54.350;18.664;2024-01-27T08:40:05;0.60;;;0.60;;
18320;SDS011;54904;54.350;18.664;2024-01-27T08:42:33;0.77;;;0.70;;
18320;SDS011;54904;54.350;18.664;2024-01-27T08:45:01;0.53;;;0.53;;
18320;SDS011;54904;54.350;18.664;2024-01-27T08:47:29;0.60;;;0.50;;
18320;SDS011;54904;54.350;18.664;2024-01-27T08:49:56;0.60;;;0.50;;
18320;SDS011;54904;54.350;18.664;2024-01-27T08:52:23;0.60;;;0.60;;
18320;SDS011;54904;54.350;18.664;2024-01-27T08:54:50;0.50;;;0.50;;
18320;SDS011;54904;54.350;18.664;2024-01-27T08:57:17;0.30;;;0.30;;
18320;SDS011;54904;54.350;18.664;2024-01-27T08:59:44;0.40;;;0.40;;
18320;SDS011;54904;54.350;18.664;2024-01-27T09:02:13;0.60;;;0.60;;
18320;SDS011;54904;54.350;18.664;2024-01-27T09:04:40;0.67;;;0.67;;
18320;SDS011;54904;54.350;18.664;2024-01-27T09:07:07;0.60;;;0.60;;
18320;SDS011;54904;54.350;18.664;2024-01-27T09:09:34;0.60;;;0.60;;
18320;SDS011;54904;54.350;18.664;2024-01-27T09:12:03;0.60;;;0.60;;
18320;SDS011;54904;54.350;18.664;2024-01-27T09:14:30;0.60;;;0.50;;
18320;SDS011;54904;54.350;18.664;2024-01-27T09:16:58;0.50;;;0.50;;
18320;SDS011;54904;54.350;18.664;2024-01-27T09:19:27;1.07;;;0.60;;
18320;SDS011;54904;54.350;18.664;2024-01-27T09:21:55;0.40;;;0.40;;
18320;SDS011;54904;54.350;18.664;2024-01-27T09:24:22;0.50;;;0.50;;
18320;SDS011;54904;54.350;18.664;2024-01-27T09:26:49;0.57;;;0.57;;
18320;SDS011;54904;54.350;18.664;2024-01-27T09:29:17;0.50;;;0.50;;
18320;SDS011;54904;54.350;18.664;2024-01-27T09:31:44;0.50;;;0.50;;
18320;SDS011;54904;54.350;18.664;2024-01-27T09:34:12;0.60;;;0.60;;
18320;SDS011;54904;54.350;18.664;2024-01-27T09:36:40;0.43;;;0.43;;
18320;SDS011;54904;54.350;18.664;2024-01-27T09:39:07;0.70;;;0.70;;
18320;SDS011;54904;54.350;18.664;2024-01-27T09:41:34;0.70;;;0.70;;
18320;SDS011;54904;54.350;18.664;2024-01-27T09:44:02;0.77;;;0.77;;
18320;SDS011;54904;54.350;18.664;2024-01-27T09:46:30;0.87;;;0.70;;
18320;SDS011;54904;54.350;18.664;2024-01-27T09:48:58;1.67;;;1.00;;
18320;SDS011;54904;54.350;18.664;2024-01-27T09:51:25;1.77;;;0.90;;
18320;SDS011;54904;54.350;18.664;2024-01-27T09:53:54;0.97;;;0.90;;
18320;SDS011;54904;54.350;18.664;2024-01-27T09:56:22;0.97;;;0.90;;
18320;SDS011;54904;54.350;18.664;2024-01-27T09:58:49;2.40;;;1.33;;
18320;SDS011;54904;54.350;18.664;2024-01-27T10:01:20;2.37;;;1.80;;
18320;SDS011;54904;54.350;18.664;2024-01-27T10:03:50;2.37;;;1.60;;
18320;SDS011;54904;54.350;18.664;2024-01-27T10:06:18;3.43;;;1.77;;
18320;SDS011;54904;54.350;18.664;2024-01-27T10:08:46;3.77;;;1.50;;
18320;SDS011;54904;54.350;18.664;2024-01-27T10:11:21;3.90;;;1.73;;
18320;SDS011;54904;54.350;18.664;2024-01-27T10:13:56;2.00;;;1.30;;
18320;SDS011;54904;54.350;18.664;2024-01-27T10:16:25;2.30;;;1.30;;
18320;SDS011;54904;54.350;18.664;2024-01-27T10:18:58;1.57;;;1.10;;
18320;SDS011;54904;54.350;18.664;2024-01-27T10:21:27;2.03;;;1.40;;
18320;SDS011;54904;54.350;18.664;2024-01-27T10:23:54;4.20;;;1.30;;
18320;SDS011;54904;54.350;18.664;2024-01-27T10:26:22;2.53;;;1.20;;
18320;SDS011;54904;54.350;18.664;2024-01-27T10:28:53;0.83;;;0.80;;
18320;SDS011;54904;54.350;18.664;2024-01-27T10:31:25;9.87;;;1.20;;
18320;SDS011;54904;54.350;18.664;2024-01-27T10:33:52;1.70;;;1.20;;
18320;SDS011;54904;54.350;18.664;2024-01-27T10:36:20;5.53;;;1.80;;
18320;SDS011;54904;54.350;18.664;2024-01-27T10:38:47;2.43;;;1.50;;
18320;SDS011;54904;54.350;18.664;2024-01-27T10:41:17;2.03;;;1.43;;
18320;SDS011;54904;54.350;18.664;2024-01-27T10:43:51;2.87;;;1.70;;
18320;SDS011;54904;54.350;18.664;2024-01-27T10:46:20;2.43;;;1.30;;
18320;SDS011;54904;54.350;18.664;2024-01-27T10:48:49;1.90;;;0.80;;
18320;SDS011;54904;54.350;18.664;2024-01-27T10:51:18;1.40;;;1.30;;
18320;SDS011;54904;54.350;18.664;2024-01-27T10:53:51;1.63;;;1.13;;
18320;SDS011;54904;54.350;18.664;2024-01-27T10:56:23;3.10;;;1.60;;
18320;SDS011;54904;54.350;18.664;2024-01-27T10:58:51;2.90;;;2.00;;
18320;SDS011;54904;54.350;18.664;2024-01-27T11:01:19;3.30;;;1.80;;
18320;SDS011;54904;54.350;18.664;2024-01-27T11:03:49;8.63;;;4.20;;
18320;SDS011;54904;54.350;18.664;2024-01-27T11:06:19;6.87;;;3.63;;
18320;SDS011;54904;54.350;18.664;2024-01-27T11:08:49;5.20;;;3.03;;
18320;SDS011;54904;54.350;18.664;2024-01-27T11:11:16;4.77;;;2.60;;
18320;SDS011;54904;54.350;18.664;2024-01-27T11:13:45;2.60;;;2.10;;
18320;SDS011;54904;54.350;18.664;2024-01-27T11:16:15;2.90;;;2.43;;
18320;SDS011;54904;54.350;18.664;2024-01-27T11:18:43;2.53;;;1.50;;
18320;SDS011;54904;54.350;18.664;2024-01-27T11:21:12;1.23;;;1.10;;
18320;SDS011;54904;54.350;18.664;2024-01-27T11:23:41;1.63;;;0.93;;
18320;SDS011;54904;54.350;18.664;2024-01-27T11:26:09;1.73;;;0.90;;
18320;SDS011;54904;54.350;18.664;2024-01-27T11:28:39;1.10;;;0.70;;
18320;SDS011;54904;54.350;18.664;2024-01-27T11:31:09;1.40;;;0.80;;
18320;SDS011;54904;54.350;18.664;2024-01-27T11:33:41;1.97;;;0.87;;
18320;SDS011;54904;54.350;18.664;2024-01-27T11:36:17;1.43;;;0.87;;
18320;SDS011;54904;54.350;18.664;2024-01-27T11:38:46;2.20;;;0.97;;
18320;SDS011;54904;54.350;18.664;2024-01-27T11:41:25;0.60;;;0.60;;
18320;SDS011;54904;54.350;18.664;2024-01-27T11:43:53;0.80;;;0.70;;
18320;SDS011;54904;54.350;18.664;2024-01-27T11:46:21;1.53;;;0.83;;
18320;SDS011;54904;54.350;18.664;2024-01-27T11:48:49;1.63;;;0.70;;
18320;SDS011;54904;54.350;18.664;2024-01-27T11:51:16;1.03;;;0.70;;
18320;SDS011;54904;54.350;18.664;2024-01-27T11:53:45;3.90;;;0.80;;
18320;SDS011;54904;54.350;18.664;2024-01-27T11:56:13;1.40;;;0.70;;
18320;SDS011;54904;54.350;18.664;2024-01-27T11:58:45;3.17;;;1.00;;
18320;SDS011;54904;54.350;18.664;2024-01-27T12:01:13;1.23;;;0.73;;
18320;SDS011;54904;54.350;18.664;2024-01-27T12:03:42;2.00;;;0.80;;
18320;SDS011;54904;54.350;18.664;2024-01-27T12:06:10;3.97;;;0.77;;
18320;SDS011;54904;54.350;18.664;2024-01-27T12:08:38;1.27;;;0.90;;
18320;SDS011;54904;54.350;18.664;2024-01-27T12:11:05;3.53;;;1.00;;
18320;SDS011;54904;54.350;18.664;2024-01-27T12:13:32;2.20;;;1.10;;
18320;SDS011;54904;54.350;18.664;2024-01-27T12:16:00;2.77;;;0.90;;
18320;SDS011;54904;54.350;18.664;2024-01-27T12:18:27;2.83;;;1.07;;
18320;SDS011;54904;54.350;18.664;2024-01-27T12:20:57;0.83;;;0.80;;
18320;SDS011;54904;54.350;18.664;2024-01-27T12:23:24;3.07;;;0.90;;
18320;SDS011;54904;54.350;18.664;2024-01-27T12:25:54;2.97;;;1.37;;
18320;SDS011;54904;54.350;18.664;2024-01-27T12:28:22;3.30;;;1.10;;
18320;SDS011;54904;54.350;18.664;2024-01-27T12:30:49;2.30;;;0.90;;
18320;SDS011;54904;54.350;18.664;2024-01-27T12:33:18;4.00;;;1.27;;
18320;SDS011;54904;54.350;18.664;2024-01-27T12:35:49;2.83;;;1.00;;
18320;SDS011;54904;54.350;18.664;2024-01-27T12:38:18;5.83;;;1.30;;
18320;SDS011;54904;54.350;18.664;2024-01-27T12:40:45;3.37;;;1.37;;
18320;SDS011;54904;54.350;18.664;2024-01-27T12:43:12;3.00;;;1.30;;
18320;SDS011;54904;54.350;18.664;2024-01-27T12:45:40;7.47;;;1.50;;
18320;SDS011;54904;54.350;18.664;2024-01-27T12:48:07;3.73;;;0.90;;
18320;SDS011;54904;54.350;18.664;2024-01-27T12:50:34;4.20;;;1.60;;
18320;SDS011;54904;54.350;18.664;2024-01-27T12:53:01;1.53;;;0.90;;
18320;SDS011;54904;54.350;18.664;2024-01-27T12:55:30;4.27;;;1.10;;
18320;SDS011;54904;54.350;18.664;2024-01-27T12:57:57;2.27;;;1.20;;
18320;SDS011;54904;54.350;18.664;2024-01-27T13:00:24;4.57;;;1.47;;
18320;SDS011;54904;54.350;18.664;2024-01-27T13:02:51;6.07;;;1.47;;
18320;SDS011;54904;54.350;18.664;2024-01-27T13:05:18;3.73;;;1.20;;
18320;SDS011;54904;54.350;18.664;2024-01-27T13:07:45;5.60;;;1.53;;
18320;SDS011;54904;54.350;18.664;2024-01-27T13:10:13;4.77;;;1.00;;
18320;SDS011;54904;54.350;18.664;2024-01-27T13:12:42;1.83;;;0.97;;
18320;SDS011;54904;54.350;18.664;2024-01-27T13:15:10;4.03;;;1.23;;
18320;SDS011;54904;54.350;18.664;2024-01-27T13:17:37;2.30;;;0.97;;
18320;SDS011;54904;54.350;18.664;2024-01-27T13:20:04;3.47;;;1.10;;
18320;SDS011;54904;54.350;18.664;2024-01-27T13:22:32;3.53;;;1.03;;
18320;SDS011;54904;54.350;18.664;2024-01-27T13:24:59;4.37;;;1.83;;
18320;SDS011;54904;54.350;18.664;2024-01-27T13:27:29;4.03;;;1.70;;
18320;SDS011;54904;54.350;18.664;2024-01-27T13:29:58;2.87;;;1.50;;
18320;SDS011;54904;54.350;18.664;2024-01-27T13:32:25;1.67;;;1.13;;
18320;SDS011;54904;54.350;18.664;2024-01-27T13:34:52;3.37;;;1.10;;
18320;SDS011;54904;54.350;18.664;2024-01-27T13:37:19;3.47;;;1.10;;
18320;SDS011;54904;54.350;18.664;2024-01-27T13:39:47;2.30;;;1.10;;
18320;SDS011;54904;54.350;18.664;2024-01-27T13:42:14;3.50;;;1.30;;
18320;SDS011;54904;54.350;18.664;2024-01-27T13:44:41;3.47;;;1.30;;
18320;SDS011;54904;54.350;18.664;2024-01-27T13:47:10;1.83;;;1.13;;
18320;SDS011;54904;54.350;18.664;2024-01-27T13:49:37;1.50;;;1.00;;
18320;SDS011;54904;54.350;18.664;2024-01-27T13:52:05;4.07;;;1.07;;
18320;SDS011;54904;54.350;18.664;2024-01-27T13:54:32;3.70;;;1.30;;
18320;SDS011;54904;54.350;18.664;2024-01-27T13:57:00;1.00;;;0.90;;
18320;SDS011;54904;54.350;18.664;2024-01-27T13:59:27;1.00;;;0.90;;
18320;SDS011;54904;54.350;18.664;2024-01-27T14:01:55;3.07;;;1.10;;
18320;SDS011;54904;54.350;18.664;2024-01-27T14:04:24;5.23;;;1.30;;
18320;SDS011;54904;54.350;18.664;2024-01-27T14:06:51;2.40;;;1.00;;
18320;SDS011;54904;54.350;18.664;2024-01-27T14:09:19;1.43;;;0.93;;
18320;SDS011;54904;54.350;18.664;2024-01-27T14:11:46;2.87;;;1.17;;
18320;SDS011;54904;54.350;18.664;2024-01-27T14:14:13;0.97;;;0.80;;
18320;SDS011;54904;54.350;18.664;2024-01-27T14:16:43;1.40;;;0.80;;
18320;SDS011;54904;54.350;18.664;2024-01-27T14:19:10;2.80;;;1.23;;
18320;SDS011;54904;54.350;18.664;2024-01-27T14:21:39;3.10;;;1.27;;
18320;SDS011;54904;54.350;18.664;2024-01-27T14:24:06;3.23;;;1.17;;
18320;SDS011;54904;54.350;18.664;2024-01-27T14:26:34;2.90;;;1.30;;
18320;SDS011;54904;54.350;18.664;2024-01-27T14:29:03;1.37;;;0.90;;
18320;SDS011;54904;54.350;18.664;2024-01-27T14:31:30;2.17;;;1.13;;
18320;SDS011;54904;54.350;18.664;2024-01-27T14:33:57;2.83;;;1.27;;
18320;SDS011;54904;54.350;18.664;2024-01-27T14:36:25;1.53;;;1.00;;
18320;SDS011;54904;54.350;18.664;2024-01-27T14:38:53;5.00;;;1.10;;